createdAt,value
2023-05-16T00:00:24.015Z,4.22
2023-05-16T00:02:52.933Z,5.10
2023-05-16T00:05:21.734Z,4.22
2023-05-16T00:07:50.201Z,4.38
2023-05-16T00:10:20.610Z,4.20
2023-05-16T00:12:51.590Z,4.38
2023-05-16T00:15:23.568Z,4.57
2023-05-16T00:17:52.180Z,4.25
2023-05-16T00:20:24.357Z,5.00
2023-05-16T00:22:52.849Z,4.90
2023-05-16T00:25:24.589Z,5.00
2023-05-16T00:27:53.023Z,4.70
2023-05-16T00:30:22.836Z,4.68
2023-05-16T00:32:51.350Z,4.90
2023-05-16T00:35:20.152Z,4.90
2023-05-16T00:37:48.586Z,5.07
2023-05-16T00:40:17.218Z,5.80
2023-05-16T00:42:47.082Z,5.00
2023-05-16T00:45:15.559Z,4.95
2023-05-16T00:47:44.213Z,5.35
2023-05-16T00:50:12.970Z,5.72
2023-05-16T00:52:42.005Z,5.05
2023-05-16T00:55:12.075Z,5.85
2023-05-16T00:57:41.499Z,5.47
2023-05-16T01:00:12.814Z,5.55
2023-05-16T01:02:41.905Z,5.28
2023-05-16T01:05:10.880Z,5.10
2023-05-16T01:07:39.541Z,5.20
2023-05-16T01:10:10.192Z,5.20
2023-05-16T01:12:46.855Z,4.53
2023-05-16T01:15:22.847Z,4.90
2023-05-16T01:17:59.357Z,4.63
2023-05-16T01:20:39.365Z,4.00
2023-05-16T01:23:30.877Z,5.13
2023-05-16T01:26:15.506Z,5.47
2023-05-16T01:28:46.051Z,5.25
2023-05-16T01:31:14.825Z,4.70
2023-05-16T01:33:43.463Z,5.38
2023-05-16T01:36:27.114Z,5.00
2023-05-16T01:39:10.707Z,5.22
2023-05-16T01:41:54.998Z,4.88
2023-05-16T01:44:30.795Z,5.50
2023-05-16T01:47:03.500Z,4.97
2023-05-16T01:49:37.873Z,4.93
2023-05-16T01:52:12.006Z,5.68
2023-05-16T01:54:45.596Z,5.13
2023-05-16T01:57:16.351Z,4.80
2023-05-16T01:59:46.256Z,5.60
2023-05-16T02:02:14.764Z,5.57
2023-05-16T02:04:43.217Z,5.80
2023-05-16T02:07:12.107Z,5.85
2023-05-16T02:09:40.557Z,5.43
2023-05-16T02:12:09.559Z,5.50
2023-05-16T02:14:39.480Z,5.82
2023-05-16T02:17:08.704Z,5.10
2023-05-16T02:19:37.196Z,6.03
2023-05-16T02:22:06.308Z,6.17
2023-05-16T02:24:35.033Z,5.90
2023-05-16T02:27:03.980Z,7.05
2023-05-16T02:29:32.454Z,6.40
2023-05-16T02:32:02.337Z,7.00
2023-05-16T02:34:31.041Z,6.13
2023-05-16T02:36:59.507Z,6.88
2023-05-16T02:39:27.967Z,5.80
2023-05-16T02:41:56.444Z,6.80
2023-05-16T02:44:25.160Z,6.68
2023-05-16T02:46:53.697Z,6.63
2023-05-16T02:49:23.541Z,6.70
2023-05-16T02:51:52.047Z,6.53
2023-05-16T02:54:20.544Z,6.85
2023-05-16T02:56:48.996Z,6.80
2023-05-16T02:59:17.654Z,6.50
2023-05-16T03:01:46.211Z,6.97
2023-05-16T03:04:14.882Z,6.30
2023-05-16T03:06:44.819Z,6.05
2023-05-16T03:09:13.561Z,6.15
2023-05-16T03:11:42.265Z,6.97
2023-05-16T03:14:10.757Z,7.15
2023-05-16T03:16:41.716Z,7.13
2023-05-16T03:19:10.538Z,7.05
2023-05-16T03:21:39.286Z,7.10
2023-05-16T03:24:10.035Z,7.30
2023-05-16T03:26:39.338Z,6.38
2023-05-16T03:29:07.902Z,6.28
2023-05-16T03:31:37.133Z,6.78
2023-05-16T03:34:05.879Z,6.18
2023-05-16T03:36:34.614Z,6.23
2023-05-16T03:39:03.165Z,6.45
2023-05-16T03:41:33.277Z,5.95
2023-05-16T03:44:01.820Z,6.05
2023-05-16T03:46:30.551Z,6.45
2023-05-16T03:48:59.396Z,6.10
2023-05-16T03:51:28.198Z,6.45
2023-05-16T03:53:56.760Z,5.88
2023-05-16T03:56:26.280Z,6.50
2023-05-16T03:58:56.137Z,6.68
2023-05-16T04:01:24.848Z,6.00
2023-05-16T04:03:53.313Z,6.78
2023-05-16T04:06:22.095Z,6.78
2023-05-16T04:08:50.599Z,7.30
2023-05-16T04:11:19.067Z,6.70
2023-05-16T04:13:47.569Z,7.20
2023-05-16T04:16:17.492Z,7.50
2023-05-16T04:18:46.067Z,7.72
2023-05-16T04:21:16.325Z,9.18
2023-05-16T04:23:45.038Z,10.95
2023-05-16T04:26:14.607Z,11.27
2023-05-16T04:28:43.407Z,13.45
2023-05-16T04:31:14.273Z,14.93
2023-05-16T04:33:44.416Z,15.85
2023-05-16T04:36:12.960Z,16.15
2023-05-16T04:38:41.913Z,16.23
2023-05-16T04:41:10.485Z,16.33
2023-05-16T04:43:39.048Z,17.83
2023-05-16T04:46:07.963Z,17.05
2023-05-16T04:48:36.741Z,17.70
2023-05-16T04:51:06.907Z,16.53
2023-05-16T04:53:35.736Z,16.15
2023-05-16T04:56:05.882Z,16.48
2023-05-16T04:58:34.456Z,18.10
2023-05-16T05:01:02.944Z,17.92
2023-05-16T05:03:31.465Z,16.80
2023-05-16T05:05:59.947Z,17.95
2023-05-16T05:08:29.798Z,18.10
2023-05-16T05:10:58.530Z,18.80
2023-05-16T05:13:27.044Z,18.73
2023-05-16T05:15:55.527Z,16.87
2023-05-16T05:18:24.069Z,18.42
2023-05-16T05:20:53.394Z,18.42
2023-05-16T05:23:22.015Z,18.40
2023-05-16T05:25:51.966Z,17.75
2023-05-16T05:28:20.488Z,18.20
2023-05-16T05:30:50.167Z,18.80
2023-05-16T05:33:19.875Z,18.63
2023-05-16T05:35:49.302Z,17.20
2023-05-16T05:38:17.758Z,16.63
2023-05-16T05:40:49.626Z,16.47
2023-05-16T05:43:19.540Z,15.27
2023-05-16T05:45:48.959Z,15.20
2023-05-16T05:48:17.462Z,15.10
2023-05-16T05:50:45.982Z,15.75
2023-05-16T05:53:14.574Z,15.47
2023-05-16T05:55:43.010Z,14.30
2023-05-16T05:58:13.185Z,13.38
2023-05-16T06:00:43.046Z,14.00
2023-05-16T06:03:11.647Z,13.73
2023-05-16T06:08:29.934Z,12.43
2023-05-16T06:10:58.469Z,13.27
2023-05-16T06:13:27.643Z,11.98
2023-05-16T06:15:58.026Z,11.25
2023-05-16T06:18:26.570Z,13.23
2023-05-16T06:20:55.227Z,12.40
2023-05-16T06:23:23.689Z,13.05
2023-05-16T06:25:52.436Z,13.05
2023-05-16T06:28:20.978Z,13.50
2023-05-16T06:30:53.744Z,13.20
2023-05-16T06:33:23.628Z,12.57
2023-05-16T06:35:52.510Z,13.48
2023-05-16T06:38:21.143Z,13.48
2023-05-16T06:40:50.536Z,13.65
2023-05-16T06:43:19.494Z,13.57
2023-05-16T06:45:48.030Z,14.00
2023-05-16T06:48:17.903Z,12.70
2023-05-16T06:50:51.969Z,13.60
2023-05-16T06:53:21.531Z,12.80
2023-05-16T06:55:50.281Z,16.40
2023-05-16T06:58:18.880Z,12.23
2023-05-16T07:00:47.422Z,12.13
2023-05-16T07:03:16.119Z,12.15
2023-05-16T07:05:45.444Z,12.90
2023-05-16T07:08:15.814Z,10.97
2023-05-16T07:10:44.643Z,9.27
2023-05-16T07:13:13.364Z,10.38
2023-05-16T07:15:42.668Z,9.10
2023-05-16T07:18:11.791Z,8.70
2023-05-16T07:20:42.431Z,8.67
2023-05-16T07:23:10.953Z,8.80
2023-05-16T07:25:40.961Z,8.32
2023-05-16T07:28:09.527Z,8.02
2023-05-16T07:30:38.046Z,7.28
2023-05-16T07:33:06.619Z,6.90
2023-05-16T07:35:35.420Z,6.97
2023-05-16T07:38:04.109Z,6.55
2023-05-16T07:40:33.285Z,6.60
2023-05-16T07:43:03.893Z,6.50
2023-05-16T07:45:32.473Z,6.70
2023-05-16T07:48:01.269Z,6.30
2023-05-16T07:50:30.411Z,6.32
2023-05-16T07:52:58.952Z,6.20
2023-05-16T07:55:27.865Z,6.85
2023-05-16T07:57:56.697Z,6.83
2023-05-16T08:00:27.392Z,7.35
2023-05-16T08:02:56.469Z,7.15
2023-05-16T08:05:25.631Z,6.30
2023-05-16T08:07:54.571Z,6.78
2023-05-16T08:10:25.251Z,6.03
2023-05-16T08:12:54.712Z,6.40
2023-05-16T08:15:23.663Z,6.82
2023-05-16T08:17:54.721Z,7.20
2023-05-16T08:20:23.293Z,6.78
2023-05-16T08:22:52.290Z,6.37
2023-05-16T08:25:21.407Z,7.10
2023-05-16T08:27:51.876Z,7.13
2023-05-16T08:30:21.173Z,7.40
2023-05-16T08:32:49.730Z,7.53
2023-05-16T08:35:19.810Z,7.37
2023-05-16T08:37:48.808Z,7.65
2023-05-16T08:40:18.043Z,7.78
2023-05-16T08:42:46.658Z,7.35
2023-05-16T08:45:16.298Z,7.38
2023-05-16T08:47:46.861Z,6.30
2023-05-16T08:50:18.679Z,6.05
2023-05-16T08:52:52.911Z,6.53
2023-05-16T08:55:23.100Z,6.32
2023-05-16T08:57:52.280Z,6.35
2023-05-16T09:00:22.571Z,6.43
2023-05-16T09:02:51.922Z,6.50
2023-05-16T09:05:23.930Z,6.90
2023-05-16T09:07:52.446Z,6.45
2023-05-16T09:10:22.330Z,6.88
2023-05-16T09:12:51.030Z,6.50
2023-05-16T09:15:21.980Z,7.28
2023-05-16T09:17:50.695Z,6.57
2023-05-16T09:20:22.054Z,7.20
2023-05-16T09:22:55.318Z,6.93
2023-05-16T09:25:30.407Z,6.93
2023-05-16T09:28:03.429Z,7.38
2023-05-16T09:30:35.492Z,7.10
2023-05-16T09:33:04.369Z,6.88
2023-05-16T09:35:44.664Z,6.80
2023-05-16T09:38:18.255Z,5.83
2023-05-16T09:40:48.747Z,6.95
2023-05-16T09:43:20.398Z,7.20
2023-05-16T09:45:51.060Z,6.38
2023-05-16T09:48:19.956Z,5.97
2023-05-16T09:50:54.804Z,6.30
2023-05-16T09:53:30.383Z,5.70
2023-05-16T09:56:03.886Z,5.95
2023-05-16T09:58:34.929Z,5.65
2023-05-16T10:01:04.222Z,5.63
2023-05-16T10:03:35.252Z,5.27
2023-05-16T10:06:07.012Z,6.40
2023-05-16T10:08:37.397Z,5.95
2023-05-16T10:11:07.991Z,5.25
2023-05-16T10:13:38.273Z,4.85
2023-05-16T10:16:12.051Z,5.60
2023-05-16T10:18:42.536Z,5.45
2023-05-16T10:21:17.105Z,5.43
2023-05-16T10:23:49.879Z,4.57
2023-05-16T10:26:19.258Z,4.85
2023-05-16T10:28:48.401Z,4.90
2023-05-16T10:31:17.498Z,4.70
2023-05-16T10:33:47.303Z,4.40
2023-05-16T10:36:18.619Z,5.32
2023-05-16T10:38:48.138Z,6.10
2023-05-16T10:41:17.072Z,5.60
2023-05-16T10:43:47.804Z,5.80
2023-05-16T10:46:16.326Z,6.00
2023-05-16T10:48:44.878Z,6.30
2023-05-16T10:51:38.267Z,6.40
2023-05-16T10:54:10.254Z,6.73
2023-05-16T10:56:39.085Z,6.45
2023-05-16T10:59:26.202Z,6.90
2023-05-16T11:01:56.570Z,7.20
2023-05-16T11:04:25.287Z,6.82
2023-05-16T11:06:57.028Z,7.63
2023-05-16T11:09:28.277Z,7.18
2023-05-16T11:12:03.178Z,6.80
2023-05-16T11:14:42.303Z,7.97
2023-05-16T11:17:14.211Z,7.38
2023-05-16T11:19:46.150Z,6.90
2023-05-16T11:22:26.763Z,6.60
2023-05-16T11:25:01.474Z,6.15
2023-05-16T11:27:32.860Z,6.40
2023-05-16T11:30:12.949Z,6.70
2023-05-16T11:32:45.144Z,6.33
2023-05-16T11:35:15.631Z,6.35
2023-05-16T11:37:47.269Z,7.10
2023-05-16T11:40:17.407Z,6.65
2023-05-16T11:42:48.203Z,7.25
2023-05-16T11:45:19.297Z,7.00
2023-05-16T11:47:50.624Z,6.82
2023-05-16T11:50:20.899Z,6.63
2023-05-16T11:52:54.188Z,7.70
2023-05-16T11:55:40.391Z,7.13
2023-05-16T11:58:13.872Z,7.53
2023-05-16T12:00:50.674Z,7.63
2023-05-16T12:03:21.398Z,6.93
2023-05-16T12:05:54.606Z,7.70
2023-05-16T12:08:25.594Z,8.15
2023-05-16T12:10:55.181Z,7.60
2023-05-16T12:13:26.090Z,8.65
2023-05-16T12:15:55.172Z,8.43
2023-05-16T12:18:27.531Z,8.07
2023-05-16T12:20:56.189Z,8.68
2023-05-16T12:23:29.683Z,8.73
2023-05-16T12:26:01.086Z,9.93
2023-05-16T12:28:35.110Z,9.57
2023-05-16T12:31:03.688Z,8.35
2023-05-16T12:33:32.220Z,8.52
2023-05-16T12:36:01.891Z,9.47
2023-05-16T12:38:32.145Z,10.02
2023-05-16T12:41:01.020Z,7.53
2023-05-16T12:43:29.539Z,9.10
2023-05-16T12:45:59.222Z,8.52
2023-05-16T12:48:35.351Z,8.70
2023-05-16T12:51:14.460Z,10.85
2023-05-16T12:53:57.736Z,7.72
2023-05-16T12:56:35.212Z,10.30
2023-05-16T12:59:04.168Z,11.45
2023-05-16T13:01:32.936Z,8.53
2023-05-16T13:04:01.656Z,7.30
2023-05-16T13:06:39.738Z,7.63
2023-05-16T13:09:19.292Z,7.55
2023-05-16T13:11:48.556Z,8.45
2023-05-16T13:14:17.736Z,7.30
2023-05-16T13:16:46.278Z,7.10
2023-05-16T13:19:16.035Z,7.68
2023-05-16T13:21:44.563Z,7.28
2023-05-16T13:24:13.277Z,7.40
2023-05-16T13:26:43.177Z,6.87
2023-05-16T13:29:12.633Z,7.78
2023-05-16T13:31:41.180Z,7.65
2023-05-16T13:34:09.678Z,6.93
2023-05-16T13:36:52.278Z,7.63
2023-05-16T13:39:23.293Z,7.30
2023-05-16T13:41:53.989Z,6.63
2023-05-16T13:44:22.892Z,6.47
2023-05-16T13:46:51.907Z,6.95
2023-05-16T13:49:20.889Z,6.80
2023-05-16T13:51:49.431Z,6.77
2023-05-16T13:54:18.373Z,7.32
2023-05-16T13:56:47.091Z,7.07
2023-05-16T13:59:31.879Z,6.60
2023-05-16T14:02:06.236Z,7.05
2023-05-16T14:04:35.062Z,7.23
2023-05-16T14:07:03.565Z,6.47
2023-05-16T14:09:35.356Z,7.10
2023-05-16T14:12:04.290Z,6.60
2023-05-16T14:14:34.330Z,7.38
2023-05-16T14:17:04.033Z,6.60
2023-05-16T14:19:32.917Z,6.22
2023-05-16T14:22:04.971Z,6.47
2023-05-16T14:24:33.859Z,6.40
2023-05-16T14:27:03.459Z,6.40
2023-05-16T14:29:33.469Z,6.67
2023-05-16T14:32:02.106Z,5.95
2023-05-16T14:34:30.712Z,5.97
2023-05-16T14:36:59.593Z,6.10
2023-05-16T14:39:28.551Z,6.45
2023-05-16T14:41:58.119Z,5.80
2023-05-16T14:44:26.761Z,5.95
2023-05-16T14:46:56.669Z,6.32
2023-05-16T14:49:25.162Z,5.88
2023-05-16T14:51:53.899Z,5.80
2023-05-16T14:54:22.371Z,5.87
2023-05-16T14:56:50.905Z,5.97
2023-05-16T14:59:19.448Z,5.90
2023-05-16T15:01:47.969Z,5.70
2023-05-16T15:04:18.107Z,6.60
2023-05-16T15:06:46.708Z,6.17
2023-05-16T15:09:15.259Z,5.95
2023-05-16T15:11:43.928Z,6.03
2023-05-16T15:14:12.449Z,6.55
2023-05-16T15:16:41.350Z,6.38
2023-05-16T15:19:10.001Z,5.93
2023-05-16T15:21:40.195Z,5.72
2023-05-16T15:24:09.671Z,5.82
2023-05-16T15:26:40.673Z,5.72
2023-05-16T15:29:09.487Z,5.95
2023-05-16T15:31:38.026Z,6.17
2023-05-16T15:34:08.545Z,5.53
2023-05-16T15:36:37.054Z,5.85
2023-05-16T15:39:07.224Z,6.00
2023-05-16T15:41:56.840Z,5.38
2023-05-16T15:44:25.494Z,4.77
2023-05-16T15:46:54.241Z,4.88
2023-05-16T15:49:25.235Z,4.93
2023-05-16T15:51:55.134Z,4.93
2023-05-16T15:54:28.665Z,4.80
2023-05-16T15:56:57.422Z,4.83
2023-05-16T15:59:26.260Z,5.03
2023-05-16T16:01:54.817Z,4.95
2023-05-16T16:04:23.886Z,4.65
2023-05-16T16:06:52.486Z,4.75
2023-05-16T16:09:21.402Z,4.60
2023-05-16T16:11:56.141Z,4.45
2023-05-16T16:14:25.676Z,5.10
2023-05-16T16:16:54.196Z,4.70
2023-05-16T16:19:23.226Z,5.10
2023-05-16T16:21:51.831Z,4.80
2023-05-16T16:24:21.287Z,4.60
2023-05-16T16:26:51.173Z,5.10
2023-05-16T16:29:19.691Z,6.30
2023-05-16T16:31:48.598Z,5.30
2023-05-16T16:34:17.307Z,6.37
2023-05-16T16:36:45.841Z,6.15
2023-05-16T16:39:14.582Z,5.25
2023-05-16T16:41:43.089Z,4.65
2023-05-16T16:44:14.239Z,5.05
2023-05-16T16:46:42.781Z,5.20
2023-05-16T16:49:11.403Z,5.45
2023-05-16T16:51:39.945Z,5.32
2023-05-16T16:54:08.637Z,5.45
2023-05-16T16:56:37.170Z,5.05
2023-05-16T16:59:05.737Z,5.35
2023-05-16T17:01:36.109Z,5.05
2023-05-16T17:04:04.809Z,5.97
2023-05-16T17:06:33.349Z,5.55
2023-05-16T17:09:04.740Z,4.90
2023-05-16T17:11:36.462Z,4.93
2023-05-16T17:14:06.500Z,6.05
2023-05-16T17:16:37.139Z,6.25
2023-05-16T17:19:05.882Z,5.70
2023-05-16T17:21:37.143Z,5.45
2023-05-16T17:24:06.498Z,5.00
2023-05-16T17:26:35.224Z,4.85
2023-05-16T17:29:05.189Z,4.40
2023-05-16T17:31:35.353Z,4.35
2023-05-16T17:34:03.970Z,3.72
2023-05-16T17:36:32.506Z,3.30
2023-05-16T17:39:01.268Z,3.30
2023-05-16T17:41:30.074Z,2.92
2023-05-16T17:43:58.668Z,2.80
2023-05-16T17:46:27.197Z,3.15
2023-05-16T17:48:57.065Z,3.00
2023-05-16T17:51:25.686Z,3.30
2023-05-16T17:53:56.448Z,2.60
2023-05-16T17:56:25.231Z,2.58
2023-05-16T17:58:54.417Z,2.75
2023-05-16T18:01:24.316Z,2.40
2023-05-16T18:03:52.858Z,19.90
2023-05-16T18:06:22.747Z,4.60
2023-05-16T18:08:51.287Z,2.90
2023-05-16T18:11:20.309Z,3.13
2023-05-16T18:13:48.912Z,2.53
2023-05-16T18:16:17.543Z,3.25
2023-05-16T18:18:46.139Z,2.22
2023-05-16T18:21:15.047Z,2.22
2023-05-16T18:23:45.016Z,2.53
2023-05-16T18:26:13.586Z,2.70
2023-05-16T18:28:43.530Z,2.65
2023-05-16T18:31:12.446Z,1.95
2023-05-16T18:33:40.999Z,3.05
2023-05-16T18:36:10.156Z,2.05
2023-05-16T18:38:38.889Z,2.50
2023-05-16T18:41:09.003Z,2.20
2023-05-16T18:43:37.832Z,2.20
2023-05-16T18:46:06.439Z,2.20
2023-05-16T18:48:36.352Z,2.40
2023-05-16T18:51:08.461Z,2.08
2023-05-16T18:53:37.071Z,1.92
2023-05-16T18:56:06.077Z,2.10
2023-05-16T18:58:36.908Z,3.58
2023-05-16T19:01:06.292Z,2.42
2023-05-16T19:03:35.242Z,3.58
2023-05-16T19:06:04.546Z,2.30
2023-05-16T19:08:46.400Z,2.40
2023-05-16T19:11:15.434Z,2.10
2023-05-16T19:13:47.807Z,2.20
2023-05-16T19:16:16.639Z,1.97
2023-05-16T19:18:45.386Z,2.47
2023-05-16T19:21:14.312Z,1.98
2023-05-16T19:23:42.870Z,2.08
2023-05-16T19:26:11.679Z,2.97
2023-05-16T19:28:40.939Z,3.00
2023-05-16T19:31:12.059Z,2.20
2023-05-16T19:33:40.880Z,2.80
2023-05-16T19:36:09.880Z,3.45
2023-05-16T19:38:38.514Z,6.38
2023-05-16T19:41:07.107Z,5.05
2023-05-16T19:43:35.646Z,7.38
2023-05-16T19:46:04.186Z,13.13
2023-05-16T19:48:34.441Z,3.65
2023-05-16T19:51:03.087Z,4.05
2023-05-16T19:53:31.580Z,3.70
2023-05-16T19:56:00.098Z,2.35
2023-05-16T19:58:28.947Z,2.60
2023-05-16T20:00:58.582Z,3.05
2023-05-16T20:03:27.359Z,2.35
2023-05-16T20:05:57.719Z,2.25
2023-05-16T20:08:26.335Z,2.20
2023-05-16T20:10:55.962Z,2.00
2023-05-16T20:13:25.750Z,2.00
2023-05-16T20:15:54.279Z,2.60
2023-05-16T20:18:23.049Z,2.43
2023-05-16T20:20:51.627Z,2.78
2023-05-16T20:23:21.649Z,2.00
2023-05-16T20:25:50.244Z,2.20
2023-05-16T20:28:18.805Z,1.90
2023-05-16T20:30:47.564Z,2.22
2023-05-16T20:33:16.199Z,2.22
2023-05-16T20:35:44.806Z,2.17
2023-05-16T20:38:13.348Z,1.88
2023-05-16T20:40:43.277Z,2.33
2023-05-16T20:43:12.018Z,1.95
2023-05-16T20:45:40.617Z,1.92
2023-05-16T20:48:09.198Z,2.33
2023-05-16T20:50:39.011Z,2.40
2023-05-16T20:53:07.546Z,2.45
2023-05-16T20:55:36.147Z,2.03
2023-05-16T20:58:06.262Z,2.45
2023-05-16T21:00:35.069Z,2.05
2023-05-16T21:03:03.724Z,2.10
2023-05-16T21:05:33.616Z,1.70
2023-05-16T21:08:02.296Z,2.00
2023-05-16T21:10:30.991Z,2.22
2023-05-16T21:12:59.513Z,2.10
2023-05-16T21:15:29.677Z,2.20
2023-05-16T21:17:58.722Z,2.13
2023-05-16T21:20:28.621Z,2.00
2023-05-16T21:22:57.202Z,1.67
2023-05-16T21:25:25.921Z,1.90
2023-05-16T21:27:54.470Z,2.10
2023-05-16T21:30:23.060Z,1.90
2023-05-16T21:32:53.018Z,1.80
2023-05-16T21:35:22.116Z,3.38
2023-05-16T21:37:50.645Z,1.55
2023-05-16T21:40:25.128Z,1.30
2023-05-16T21:42:54.046Z,1.67
2023-05-16T21:45:22.882Z,1.45
2023-05-16T21:47:52.853Z,1.45
2023-05-16T21:50:24.046Z,1.60
2023-05-16T21:52:52.593Z,1.40
2023-05-16T21:55:21.172Z,1.77
2023-05-16T21:57:49.674Z,1.65
2023-05-16T22:00:19.406Z,1.40
2023-05-16T22:02:48.950Z,1.80
2023-05-16T22:05:19.628Z,1.50
2023-05-16T22:07:48.168Z,1.30
2023-05-16T22:10:17.047Z,1.40
2023-05-16T22:12:45.693Z,1.70
2023-05-16T22:15:14.220Z,1.30
2023-05-16T22:17:42.894Z,1.80
2023-05-16T22:20:12.833Z,1.50
2023-05-16T22:22:44.715Z,1.58
2023-05-16T22:25:13.441Z,1.70
2023-05-16T22:27:41.951Z,1.48
2023-05-16T22:30:11.368Z,1.40
2023-05-16T22:32:40.059Z,1.55
2023-05-16T22:35:09.449Z,1.35
2023-05-16T22:37:37.942Z,1.83
2023-05-16T22:40:10.029Z,1.60
2023-05-16T22:42:38.608Z,1.60
2023-05-16T22:45:08.643Z,1.58
2023-05-16T22:47:37.407Z,1.17
2023-05-16T22:50:06.898Z,1.52
2023-05-16T22:52:35.768Z,1.60
2023-05-16T22:55:04.841Z,1.88
2023-05-16T22:57:34.735Z,1.50
2023-05-16T23:00:04.860Z,1.20
2023-05-16T23:02:33.418Z,1.40
2023-05-16T23:05:02.014Z,1.13
2023-05-16T23:07:30.703Z,1.10
2023-05-16T23:09:59.338Z,1.38
2023-05-16T23:12:28.128Z,1.42
2023-05-16T23:14:58.250Z,1.10
2023-05-16T23:17:26.809Z,1.58
2023-05-16T23:19:55.511Z,1.33
2023-05-16T23:22:24.152Z,1.60
2023-05-16T23:24:53.080Z,1.63
2023-05-16T23:27:21.601Z,1.50
2023-05-16T23:29:50.201Z,1.67
2023-05-16T23:32:20.465Z,1.45
2023-05-16T23:34:49.017Z,1.70
2023-05-16T23:37:17.668Z,1.60
2023-05-16T23:39:46.213Z,1.33
2023-05-16T23:42:14.838Z,1.40
2023-05-16T23:44:43.450Z,1.17
2023-05-16T23:47:11.946Z,1.98
2023-05-16T23:49:42.154Z,0.93
2023-05-16T23:52:10.689Z,1.23
2023-05-16T23:54:39.224Z,1.20
2023-05-16T23:57:07.843Z,1.77
2023-05-16T23:59:36.400Z,1.30
